Date,TemperatureHighF,TemperatureAvgF,TemperatureLowF,DewpointHighF,DewpointAvgF,DewpointLowF,HumidityHigh,HumidityAvg,HumidityLow,PressureMaxIn,PressureMinIn,WindSpeedMaxMPH,WindSpeedAvgMPH,GustSpeedMaxMPH,PrecipitationSumIn
2013-2-1,26.7,24.8,22.4,8.9,7.5,6.0,54,47,41,30.38,30.31,4,0,4,0.00
2013-2-2,42.9,30.2,17.5,29.1,12.4,6.9,71,49,28,30.39,30.02,9,0,9,0.00
2013-2-7,45.4,44.5,44.1,42.4,41.4,40.4,90,89,86,30.13,30.00,11,2,11,0.25
2013-2-8,53.9,45.5,38.9,47.6,40.6,29.6,92,83,63,30.01,29.77,17,3,17,0.47
2013-2-9,51.3,38.1,28.1,30.0,23.8,18.3,81,59,30,30.34,30.00,18,2,18,0.00
2013-2-10,52.8,39.7,26.4,37.4,22.8,16.8,75,52,29,30.48,30.18,9,0,9,0.02
2013-2-11,64.7,56.5,43.9,62.0,53.0,37.2,91,88,75,30.18,29.87,15,0,15,0.03
2013-2-12,60.1,51.7,40.8,55.6,39.5,30.2,92,66,34,30.05,29.89,13,1,13,0.00
2013-2-13,49.9,47.6,41.2,47.3,41.5,36.5,91,80,67,29.92,29.60,6,0,6,0.35
2013-2-14,51.9,41.0,33.4,39.2,34.3,29.3,92,78,54,30.05,29.79,8,0,8,0.01
2013-2-15,61.5,49.5,38.8,37.9,33.4,30.6,75,56,37,29.96,29.90,11,1,11,0.00
2013-2-16,45.2,38.7,31.9,34.9,32.2,29.0,89,78,64,29.95,29.81,13,1,13,0.16
2013-2-17,35.2,28.4,20.5,29.5,17.1,10.9,89,65,39,30.28,29.88,20,2,20,0.03
2013-2-18,51.7,31.8,17.2,24.9,18.1,10.7,83,60,29,30.41,30.23,9,0,10,0.00
2013-2-19,53.1,42.5,31.0,49.9,37.1,23.9,91,81,65,30.23,29.82,11,0,11,0.11
2013-2-20,51.4,39.1,27.0,37.5,24.1,15.7,90,60,27,30.12,29.92,15,1,15,0.00
2013-2-21,53.3,38.7,23.2,23.8,19.8,15.2,75,49,27,30.24,30.10,11,1,11,0.00
2013-2-22,40.3,36.4,31.8,35.5,29.5,20.3,89,77,46,30.33,30.13,10,1,10,0.21
2013-2-23,45.7,41.7,38.5,43.6,39.3,35.5,93,91,89,30.12,29.78,9,0,9,0.48
2013-2-24,61.6,50.1,35.0,47.5,38.8,28.2,93,68,38,30.01,29.76,13,1,13,0.01
2013-2-25,42.1,36.4,31.5,29.7,24.2,21.9,77,61,48,30.21,30.01,10,1,10,0.00
2013-2-26,60.5,45.4,33.2,58.3,40.6,24.1,93,83,66,30.14,29.53,17,3,17,0.75
2013-2-28,47.1,39.9,33.2,29.4,27.7,25.8,74,62,50,29.83,29.71,14,1,14,0.00